sensor_id;sensor_type;location;lat;lon;timestamp;temperature;humidity
32706;DHT22;19094;50.972;3.538;2022-07-21T00:00:41;25.20;55.70
32706;DHT22;19094;50.972;3.538;2022-07-21T00:03:07;25.20;55.70
32706;DHT22;19094;50.972;3.538;2022-07-21T00:05:33;25.10;55.90
32706;DHT22;19094;50.972;3.538;2022-07-21T00:07:59;25.10;55.80
32706;DHT22;19094;50.972;3.538;2022-07-21T00:10:26;25.10;55.80
32706;DHT22;19094;50.972;3.538;2022-07-21T00:12:53;25.10;55.90
32706;DHT22;19094;50.972;3.538;2022-07-21T00:15:20;25.10;55.70
32706;DHT22;19094;50.972;3.538;2022-07-21T00:17:47;25.10;55.80
32706;DHT22;19094;50.972;3.538;2022-07-21T00:20:15;25.10;55.70
32706;DHT22;19094;50.972;3.538;2022-07-21T00:22:42;25.10;55.70
32706;DHT22;19094;50.972;3.538;2022-07-21T00:25:08;25.10;55.90
32706;DHT22;19094;50.972;3.538;2022-07-21T00:27:35;25.10;55.90
32706;DHT22;19094;50.972;3.538;2022-07-21T00:30:01;25.10;55.90
32706;DHT22;19094;50.972;3.538;2022-07-21T00:32:27;25.10;55.90
32706;DHT22;19094;50.972;3.538;2022-07-21T00:34:53;25.10;55.90
32706;DHT22;19094;50.972;3.538;2022-07-21T00:37:19;25.10;55.90
32706;DHT22;19094;50.972;3.538;2022-07-21T00:39:44;25.00;55.90
32706;DHT22;19094;50.972;3.538;2022-07-21T00:42:23;25.00;56.00
32706;DHT22;19094;50.972;3.538;2022-07-21T00:44:49;25.10;56.40
32706;DHT22;19094;50.972;3.538;2022-07-21T00:47:14;25.00;56.00
32706;DHT22;19094;50.972;3.538;2022-07-21T00:49:40;25.00;56.10
32706;DHT22;19094;50.972;3.538;2022-07-21T00:52:06;25.00;56.10
32706;DHT22;19094;50.972;3.538;2022-07-21T00:54:32;24.90;56.30
32706;DHT22;19094;50.972;3.538;2022-07-21T00:56:57;24.90;56.30
32706;DHT22;19094;50.972;3.538;2022-07-21T00:59:23;24.90;56.20
32706;DHT22;19094;50.972;3.538;2022-07-21T01:01:49;24.90;56.30
32706;DHT22;19094;50.972;3.538;2022-07-21T01:04:14;25.00;56.20
32706;DHT22;19094;50.972;3.538;2022-07-21T01:06:40;24.90;56.20
32706;DHT22;19094;50.972;3.538;2022-07-21T01:09:06;24.90;56.30
32706;DHT22;19094;50.972;3.538;2022-07-21T01:11:32;24.90;56.40
32706;DHT22;19094;50.972;3.538;2022-07-21T01:13:58;24.90;56.50
32706;DHT22;19094;50.972;3.538;2022-07-21T01:16:24;24.90;56.40
32706;DHT22;19094;50.972;3.538;2022-07-21T01:18:51;24.90;56.50
32706;DHT22;19094;50.972;3.538;2022-07-21T01:21:36;24.80;56.30
32706;DHT22;19094;50.972;3.538;2022-07-21T01:24:04;24.80;57.20
32706;DHT22;19094;50.972;3.538;2022-07-21T01:26:30;24.80;56.50
32706;DHT22;19094;50.972;3.538;2022-07-21T01:28:57;24.80;56.50
32706;DHT22;19094;50.972;3.538;2022-07-21T01:31:23;24.80;56.70
32706;DHT22;19094;50.972;3.538;2022-07-21T01:33:49;24.80;56.60
32706;DHT22;19094;50.972;3.538;2022-07-21T01:36:16;24.80;56.90
32706;DHT22;19094;50.972;3.538;2022-07-21T01:38:42;24.80;56.80
32706;DHT22;19094;50.972;3.538;2022-07-21T01:41:26;24.80;56.70
32706;DHT22;19094;50.972;3.538;2022-07-21T01:44:02;24.70;58.20
32706;DHT22;19094;50.972;3.538;2022-07-21T01:46:32;24.70;56.90
32706;DHT22;19094;50.972;3.538;2022-07-21T01:48:58;24.70;56.90
32706;DHT22;19094;50.972;3.538;2022-07-21T01:51:24;24.70;56.70
32706;DHT22;19094;50.972;3.538;2022-07-21T01:53:50;24.70;56.80
32706;DHT22;19094;50.972;3.538;2022-07-21T01:56:19;24.70;56.90
32706;DHT22;19094;50.972;3.538;2022-07-21T01:58:46;24.70;56.80
32706;DHT22;19094;50.972;3.538;2022-07-21T02:01:14;24.70;57.00
32706;DHT22;19094;50.972;3.538;2022-07-21T02:03:39;24.70;57.00
32706;DHT22;19094;50.972;3.538;2022-07-21T02:06:05;24.70;57.00
32706;DHT22;19094;50.972;3.538;2022-07-21T02:08:32;24.70;57.00
32706;DHT22;19094;50.972;3.538;2022-07-21T02:10:58;24.70;57.00
32706;DHT22;19094;50.972;3.538;2022-07-21T02:13:24;24.70;57.10
32706;DHT22;19094;50.972;3.538;2022-07-21T02:15:50;24.70;57.00
32706;DHT22;19094;50.972;3.538;2022-07-21T02:18:16;24.70;56.90
32706;DHT22;19094;50.972;3.538;2022-07-21T02:20:41;24.70;57.00
32706;DHT22;19094;50.972;3.538;2022-07-21T02:23:07;24.70;57.00
32706;DHT22;19094;50.972;3.538;2022-07-21T02:25:33;24.70;57.30
32706;DHT22;19094;50.972;3.538;2022-07-21T02:27:59;24.70;57.10
32706;DHT22;19094;50.972;3.538;2022-07-21T02:30:24;24.60;57.10
32706;DHT22;19094;50.972;3.538;2022-07-21T02:32:50;24.60;57.30
32706;DHT22;19094;50.972;3.538;2022-07-21T02:35:15;24.60;57.20
32706;DHT22;19094;50.972;3.538;2022-07-21T02:37:41;24.60;57.20
32706;DHT22;19094;50.972;3.538;2022-07-21T02:40:07;24.60;57.30
32706;DHT22;19094;50.972;3.538;2022-07-21T02:42:33;24.60;57.30
32706;DHT22;19094;50.972;3.538;2022-07-21T02:44:59;24.60;57.30
32706;DHT22;19094;50.972;3.538;2022-07-21T02:47:24;24.60;57.30
32706;DHT22;19094;50.972;3.538;2022-07-21T02:49:50;24.60;57.40
32706;DHT22;19094;50.972;3.538;2022-07-21T02:52:16;24.60;57.30
32706;DHT22;19094;50.972;3.538;2022-07-21T02:54:41;24.60;57.20
32706;DHT22;19094;50.972;3.538;2022-07-21T02:57:07;24.50;57.50
32706;DHT22;19094;50.972;3.538;2022-07-21T02:59:32;24.50;57.30
32706;DHT22;19094;50.972;3.538;2022-07-21T03:01:58;24.50;57.50
32706;DHT22;19094;50.972;3.538;2022-07-21T03:04:24;24.50;57.30
32706;DHT22;19094;50.972;3.538;2022-07-21T03:06:50;24.50;57.50
32706;DHT22;19094;50.972;3.538;2022-07-21T03:09:15;24.50;57.50
32706;DHT22;19094;50.972;3.538;2022-07-21T03:11:41;24.50;57.70
32706;DHT22;19094;50.972;3.538;2022-07-21T03:14:07;24.50;57.80
32706;DHT22;19094;50.972;3.538;2022-07-21T03:16:32;24.50;58.10
32706;DHT22;19094;50.972;3.538;2022-07-21T03:18:58;24.50;58.20
32706;DHT22;19094;50.972;3.538;2022-07-21T03:21:24;24.50;58.20
32706;DHT22;19094;50.972;3.538;2022-07-21T03:23:49;24.50;58.00
32706;DHT22;19094;50.972;3.538;2022-07-21T03:26:15;24.40;58.20
32706;DHT22;19094;50.972;3.538;2022-07-21T03:28:42;24.50;58.30
32706;DHT22;19094;50.972;3.538;2022-07-21T03:31:08;24.40;58.20
32706;DHT22;19094;50.972;3.538;2022-07-21T03:33:34;24.40;58.50
32706;DHT22;19094;50.972;3.538;2022-07-21T03:36:00;24.40;58.60
32706;DHT22;19094;50.972;3.538;2022-07-21T03:38:26;24.40;58.10
32706;DHT22;19094;50.972;3.538;2022-07-21T03:40:52;24.40;58.10
32706;DHT22;19094;50.972;3.538;2022-07-21T03:43:18;24.40;58.50
32706;DHT22;19094;50.972;3.538;2022-07-21T03:45:44;24.40;58.00
32706;DHT22;19094;50.972;3.538;2022-07-21T03:48:11;24.40;58.30
32706;DHT22;19094;50.972;3.538;2022-07-21T03:50:41;24.40;58.20
32706;DHT22;19094;50.972;3.538;2022-07-21T03:53:08;24.40;58.00
32706;DHT22;19094;50.972;3.538;2022-07-21T03:55:33;24.40;58.40
32706;DHT22;19094;50.972;3.538;2022-07-21T03:58:01;24.40;58.20
32706;DHT22;19094;50.972;3.538;2022-07-21T04:00:35;24.40;58.30
32706;DHT22;19094;50.972;3.538;2022-07-21T04:03:01;24.40;58.40
32706;DHT22;19094;50.972;3.538;2022-07-21T04:05:27;24.30;58.50
32706;DHT22;19094;50.972;3.538;2022-07-21T04:07:54;24.30;58.30
32706;DHT22;19094;50.972;3.538;2022-07-21T04:10:22;24.30;58.70
32706;DHT22;19094;50.972;3.538;2022-07-21T04:12:50;24.40;58.70
32706;DHT22;19094;50.972;3.538;2022-07-21T04:15:16;24.40;58.60
32706;DHT22;19094;50.972;3.538;2022-07-21T04:17:42;24.30;58.60
32706;DHT22;19094;50.972;3.538;2022-07-21T04:20:09;24.30;58.50
32706;DHT22;19094;50.972;3.538;2022-07-21T04:22:36;24.30;58.90
32706;DHT22;19094;50.972;3.538;2022-07-21T04:25:02;24.30;58.90
32706;DHT22;19094;50.972;3.538;2022-07-21T04:27:29;24.30;59.00
32706;DHT22;19094;50.972;3.538;2022-07-21T04:29:56;24.20;58.80
32706;DHT22;19094;50.972;3.538;2022-07-21T04:32:22;24.30;59.10
32706;DHT22;19094;50.972;3.538;2022-07-21T04:34:48;24.20;59.30
32706;DHT22;19094;50.972;3.538;2022-07-21T04:37:14;24.20;59.00
32706;DHT22;19094;50.972;3.538;2022-07-21T04:39:40;24.20;58.80
32706;DHT22;19094;50.972;3.538;2022-07-21T04:42:06;24.20;59.20
32706;DHT22;19094;50.972;3.538;2022-07-21T04:44:32;24.20;59.30
32706;DHT22;19094;50.972;3.538;2022-07-21T04:46:59;24.20;59.30
32706;DHT22;19094;50.972;3.538;2022-07-21T04:49:24;24.20;59.60
32706;DHT22;19094;50.972;3.538;2022-07-21T04:51:50;24.20;59.50
32706;DHT22;19094;50.972;3.538;2022-07-21T04:54:16;24.20;59.80
32706;DHT22;19094;50.972;3.538;2022-07-21T04:56:42;24.20;59.30
32706;DHT22;19094;50.972;3.538;2022-07-21T04:59:09;24.20;59.10
32706;DHT22;19094;50.972;3.538;2022-07-21T05:01:35;24.20;59.20
32706;DHT22;19094;50.972;3.538;2022-07-21T05:04:01;24.20;59.00
32706;DHT22;19094;50.972;3.538;2022-07-21T05:06:26;24.10;59.10
32706;DHT22;19094;50.972;3.538;2022-07-21T05:08:52;24.20;59.10
32706;DHT22;19094;50.972;3.538;2022-07-21T05:11:18;24.10;58.90
32706;DHT22;19094;50.972;3.538;2022-07-21T05:13:44;24.20;59.20
32706;DHT22;19094;50.972;3.538;2022-07-21T05:16:09;24.10;59.40
32706;DHT22;19094;50.972;3.538;2022-07-21T05:18:35;24.10;59.60
32706;DHT22;19094;50.972;3.538;2022-07-21T05:21:00;24.10;59.70
32706;DHT22;19094;50.972;3.538;2022-07-21T05:23:26;24.20;60.30
32706;DHT22;19094;50.972;3.538;2022-07-21T05:25:52;24.10;59.80
32706;DHT22;19094;50.972;3.538;2022-07-21T05:28:17;24.10;60.10
32706;DHT22;19094;50.972;3.538;2022-07-21T05:30:43;24.10;59.30
32706;DHT22;19094;50.972;3.538;2022-07-21T05:33:09;24.10;60.30
32706;DHT22;19094;50.972;3.538;2022-07-21T05:35:34;24.00;59.90
32706;DHT22;19094;50.972;3.538;2022-07-21T05:38:00;24.00;60.50
32706;DHT22;19094;50.972;3.538;2022-07-21T05:40:26;24.00;60.20
32706;DHT22;19094;50.972;3.538;2022-07-21T05:42:51;24.00;60.50
32706;DHT22;19094;50.972;3.538;2022-07-21T05:45:17;23.90;60.50
32706;DHT22;19094;50.972;3.538;2022-07-21T05:47:43;24.00;60.60
32706;DHT22;19094;50.972;3.538;2022-07-21T05:50:09;23.90;60.60
32706;DHT22;19094;50.972;3.538;2022-07-21T05:52:35;23.90;61.00
32706;DHT22;19094;50.972;3.538;2022-07-21T05:55:01;23.90;61.10
32706;DHT22;19094;50.972;3.538;2022-07-21T05:57:26;23.90;60.80
32706;DHT22;19094;50.972;3.538;2022-07-21T05:59:52;24.00;60.50
32706;DHT22;19094;50.972;3.538;2022-07-21T06:02:19;24.00;60.80
32706;DHT22;19094;50.972;3.538;2022-07-21T06:04:45;24.00;60.60
32706;DHT22;19094;50.972;3.538;2022-07-21T06:07:11;24.00;60.60
32706;DHT22;19094;50.972;3.538;2022-07-21T06:09:36;24.00;60.80
32706;DHT22;19094;50.972;3.538;2022-07-21T06:12:02;24.00;60.60
32706;DHT22;19094;50.972;3.538;2022-07-21T06:14:28;24.00;60.50
32706;DHT22;19094;50.972;3.538;2022-07-21T06:16:54;23.90;61.00
32706;DHT22;19094;50.972;3.538;2022-07-21T06:19:20;23.90;60.90
32706;DHT22;19094;50.972;3.538;2022-07-21T06:21:46;23.90;61.00
32706;DHT22;19094;50.972;3.538;2022-07-21T06:24:11;23.90;61.20
32706;DHT22;19094;50.972;3.538;2022-07-21T06:26:37;23.90;61.50
32706;DHT22;19094;50.972;3.538;2022-07-21T06:29:04;23.80;61.60
32706;DHT22;19094;50.972;3.538;2022-07-21T06:31:31;23.80;61.90
32706;DHT22;19094;50.972;3.538;2022-07-21T06:33:57;23.80;61.50
32706;DHT22;19094;50.972;3.538;2022-07-21T06:36:23;23.80;61.40
32706;DHT22;19094;50.972;3.538;2022-07-21T06:38:48;23.80;61.50
32706;DHT22;19094;50.972;3.538;2022-07-21T06:41:14;23.90;61.50
32706;DHT22;19094;50.972;3.538;2022-07-21T06:43:40;23.80;61.80
32706;DHT22;19094;50.972;3.538;2022-07-21T06:46:05;23.80;61.70
32706;DHT22;19094;50.972;3.538;2022-07-21T06:48:31;23.90;61.90
32706;DHT22;19094;50.972;3.538;2022-07-21T06:50:57;23.80;61.50
32706;DHT22;19094;50.972;3.538;2022-07-21T06:53:25;23.80;62.00
32706;DHT22;19094;50.972;3.538;2022-07-21T06:55:51;23.70;62.00
32706;DHT22;19094;50.972;3.538;2022-07-21T06:58:20;23.80;62.00
32706;DHT22;19094;50.972;3.538;2022-07-21T07:00:47;23.70;62.40
32706;DHT22;19094;50.972;3.538;2022-07-21T07:03:14;23.70;61.80
32706;DHT22;19094;50.972;3.538;2022-07-21T07:05:40;23.70;61.80
32706;DHT22;19094;50.972;3.538;2022-07-21T07:08:06;23.70;62.00
32706;DHT22;19094;50.972;3.538;2022-07-21T07:10:31;23.70;61.70
32706;DHT22;19094;50.972;3.538;2022-07-21T07:12:58;23.70;61.80
32706;DHT22;19094;50.972;3.538;2022-07-21T07:15:25;23.70;61.90
32706;DHT22;19094;50.972;3.538;2022-07-21T07:17:51;23.70;62.00
32706;DHT22;19094;50.972;3.538;2022-07-21T07:20:17;23.80;62.10
32706;DHT22;19094;50.972;3.538;2022-07-21T07:22:43;23.80;61.40
32706;DHT22;19094;50.972;3.538;2022-07-21T07:25:09;23.80;61.60
32706;DHT22;19094;50.972;3.538;2022-07-21T07:27:35;23.70;62.00
32706;DHT22;19094;50.972;3.538;2022-07-21T07:30:02;23.70;61.60
32706;DHT22;19094;50.972;3.538;2022-07-21T07:32:28;23.80;61.80
32706;DHT22;19094;50.972;3.538;2022-07-21T07:34:53;23.70;61.70
32706;DHT22;19094;50.972;3.538;2022-07-21T07:37:20;23.80;61.50
32706;DHT22;19094;50.972;3.538;2022-07-21T07:39:46;23.80;61.70
32706;DHT22;19094;50.972;3.538;2022-07-21T07:42:11;23.70;61.50
32706;DHT22;19094;50.972;3.538;2022-07-21T07:44:37;23.70;61.40
32706;DHT22;19094;50.972;3.538;2022-07-21T07:47:03;23.70;61.40
32706;DHT22;19094;50.972;3.538;2022-07-21T07:49:29;23.70;61.20
32706;DHT22;19094;50.972;3.538;2022-07-21T07:51:56;23.80;61.10
32706;DHT22;19094;50.972;3.538;2022-07-21T07:54:21;23.80;60.80
32706;DHT22;19094;50.972;3.538;2022-07-21T07:56:47;23.90;60.40
32706;DHT22;19094;50.972;3.538;2022-07-21T07:59:13;23.90;60.50
32706;DHT22;19094;50.972;3.538;2022-07-21T08:01:39;23.90;59.90
32706;DHT22;19094;50.972;3.538;2022-07-21T08:04:05;23.90;59.60
32706;DHT22;19094;50.972;3.538;2022-07-21T08:06:31;24.00;59.70
32706;DHT22;19094;50.972;3.538;2022-07-21T08:08:58;23.90;59.90
32706;DHT22;19094;50.972;3.538;2022-07-21T08:11:24;24.00;59.70
32706;DHT22;19094;50.972;3.538;2022-07-21T08:13:50;23.90;60.40
32706;DHT22;19094;50.972;3.538;2022-07-21T08:16:16;23.90;60.30
32706;DHT22;19094;50.972;3.538;2022-07-21T08:18:42;23.90;60.10
32706;DHT22;19094;50.972;3.538;2022-07-21T08:21:09;23.90;59.80
32706;DHT22;19094;50.972;3.538;2022-07-21T08:23:34;23.90;60.40
32706;DHT22;19094;50.972;3.538;2022-07-21T08:26:00;23.90;60.00
32706;DHT22;19094;50.972;3.538;2022-07-21T08:28:26;24.00;59.70
32706;DHT22;19094;50.972;3.538;2022-07-21T08:30:52;23.90;59.50
32706;DHT22;19094;50.972;3.538;2022-07-21T08:33:17;24.00;59.90
32706;DHT22;19094;50.972;3.538;2022-07-21T08:35:43;24.00;59.60
32706;DHT22;19094;50.972;3.538;2022-07-21T08:38:10;24.00;59.50
32706;DHT22;19094;50.972;3.538;2022-07-21T08:40:43;24.00;59.70
32706;DHT22;19094;50.972;3.538;2022-07-21T08:43:10;24.00;60.60
32706;DHT22;19094;50.972;3.538;2022-07-21T08:45:39;24.10;59.80
32706;DHT22;19094;50.972;3.538;2022-07-21T08:48:05;24.00;60.10
32706;DHT22;19094;50.972;3.538;2022-07-21T08:50:34;23.90;59.70
32706;DHT22;19094;50.972;3.538;2022-07-21T08:53:00;23.80;59.70
32706;DHT22;19094;50.972;3.538;2022-07-21T08:55:29;23.80;60.00
32706;DHT22;19094;50.972;3.538;2022-07-21T08:57:55;23.80;60.20
32706;DHT22;19094;50.972;3.538;2022-07-21T09:00:22;23.70;61.40
32706;DHT22;19094;50.972;3.538;2022-07-21T09:02:47;23.80;60.60
32706;DHT22;19094;50.972;3.538;2022-07-21T09:05:13;23.80;61.20
32706;DHT22;19094;50.972;3.538;2022-07-21T09:07:54;23.80;61.60
32706;DHT22;19094;50.972;3.538;2022-07-21T09:10:24;23.70;61.50
32706;DHT22;19094;50.972;3.538;2022-07-21T09:12:52;23.60;62.60
32706;DHT22;19094;50.972;3.538;2022-07-21T09:15:20;23.60;61.70
32706;DHT22;19094;50.972;3.538;2022-07-21T09:18:04;23.60;62.10
32706;DHT22;19094;50.972;3.538;2022-07-21T09:20:33;23.60;62.40
32706;DHT22;19094;50.972;3.538;2022-07-21T09:25:43;23.70;62.00
32706;DHT22;19094;50.972;3.538;2022-07-21T09:28:14;23.70;61.70
32706;DHT22;19094;50.972;3.538;2022-07-21T09:30:59;23.70;62.00
32706;DHT22;19094;50.972;3.538;2022-07-21T09:33:26;23.70;62.00
32706;DHT22;19094;50.972;3.538;2022-07-21T09:35:59;23.60;62.40
32706;DHT22;19094;50.972;3.538;2022-07-21T09:38:26;23.60;62.40
32706;DHT22;19094;50.972;3.538;2022-07-21T09:40:52;23.60;62.30
32706;DHT22;19094;50.972;3.538;2022-07-21T09:43:34;23.70;62.10
32706;DHT22;19094;50.972;3.538;2022-07-21T09:46:04;23.80;60.70
32706;DHT22;19094;50.972;3.538;2022-07-21T09:48:31;23.90;60.40
32706;DHT22;19094;50.972;3.538;2022-07-21T09:51:00;24.00;60.10
32706;DHT22;19094;50.972;3.538;2022-07-21T09:53:50;24.00;59.90
32706;DHT22;19094;50.972;3.538;2022-07-21T09:56:19;23.90;60.10
32706;DHT22;19094;50.972;3.538;2022-07-21T09:58:47;23.60;62.40
32706;DHT22;19094;50.972;3.538;2022-07-21T10:01:14;23.50;62.60
32706;DHT22;19094;50.972;3.538;2022-07-21T10:03:43;23.70;61.80
32706;DHT22;19094;50.972;3.538;2022-07-21T10:06:09;23.50;63.60
32706;DHT22;19094;50.972;3.538;2022-07-21T10:08:37;23.50;63.50
32706;DHT22;19094;50.972;3.538;2022-07-21T10:11:04;23.60;63.40
32706;DHT22;19094;50.972;3.538;2022-07-21T10:13:30;23.70;62.70
32706;DHT22;19094;50.972;3.538;2022-07-21T10:15:58;23.70;62.50
32706;DHT22;19094;50.972;3.538;2022-07-21T10:18:25;23.70;63.10
32706;DHT22;19094;50.972;3.538;2022-07-21T10:20:59;23.80;62.20
32706;DHT22;19094;50.972;3.538;2022-07-21T10:23:41;24.00;61.60
32706;DHT22;19094;50.972;3.538;2022-07-21T10:26:08;23.90;62.40
32706;DHT22;19094;50.972;3.538;2022-07-21T10:28:35;23.90;62.30
32706;DHT22;19094;50.972;3.538;2022-07-21T10:41:39;24.20;61.40
32706;DHT22;19094;50.972;3.538;2022-07-21T10:55:15;24.30;62.20
32706;DHT22;19094;50.972;3.538;2022-07-21T11:00:35;24.20;62.10
32706;DHT22;19094;50.972;3.538;2022-07-21T11:03:14;24.20;62.60
32706;DHT22;19094;50.972;3.538;2022-07-21T11:06:20;24.30;62.50
32706;DHT22;19094;50.972;3.538;2022-07-21T11:11:29;24.10;62.50
32706;DHT22;19094;50.972;3.538;2022-07-21T11:14:15;24.10;62.70
32706;DHT22;19094;50.972;3.538;2022-07-21T11:19:38;23.90;63.50
32706;DHT22;19094;50.972;3.538;2022-07-21T11:22:13;23.90;63.70
32706;DHT22;19094;50.972;3.538;2022-07-21T11:24:42;23.80;63.80
32706;DHT22;19094;50.972;3.538;2022-07-21T11:27:10;23.80;63.90
32706;DHT22;19094;50.972;3.538;2022-07-21T11:29:38;23.80;63.60
32706;DHT22;19094;50.972;3.538;2022-07-21T11:32:05;23.70;63.70
32706;DHT22;19094;50.972;3.538;2022-07-21T11:34:47;23.70;63.20
32706;DHT22;19094;50.972;3.538;2022-07-21T11:37:15;23.70;63.40
32706;DHT22;19094;50.972;3.538;2022-07-21T11:39:41;23.70;63.60
32706;DHT22;19094;50.972;3.538;2022-07-21T11:42:13;23.70;63.20
32706;DHT22;19094;50.972;3.538;2022-07-21T11:44:40;23.70;63.40
32706;DHT22;19094;50.972;3.538;2022-07-21T11:47:09;23.70;63.40
32706;DHT22;19094;50.972;3.538;2022-07-21T11:49:35;23.70;63.40
32706;DHT22;19094;50.972;3.538;2022-07-21T11:52:08;23.70;63.60
32706;DHT22;19094;50.972;3.538;2022-07-21T11:54:36;23.70;63.20
32706;DHT22;19094;50.972;3.538;2022-07-21T11:57:07;23.80;63.30
32706;DHT22;19094;50.972;3.538;2022-07-21T11:59:34;23.80;62.90
32706;DHT22;19094;50.972;3.538;2022-07-21T12:02:10;23.90;63.20
32706;DHT22;19094;50.972;3.538;2022-07-21T12:04:40;23.80;62.90
32706;DHT22;19094;50.972;3.538;2022-07-21T12:07:18;23.90;62.70
32706;DHT22;19094;50.972;3.538;2022-07-21T12:09:47;23.90;62.20
32706;DHT22;19094;50.972;3.538;2022-07-21T12:12:13;24.00;62.10
32706;DHT22;19094;50.972;3.538;2022-07-21T12:14:49;23.90;62.10
32706;DHT22;19094;50.972;3.538;2022-07-21T12:17:34;23.90;62.20
32706;DHT22;19094;50.972;3.538;2022-07-21T12:20:00;23.80;62.40
32706;DHT22;19094;50.972;3.538;2022-07-21T12:22:34;23.80;62.50
32706;DHT22;19094;50.972;3.538;2022-07-21T12:25:00;23.60;63.10
32706;DHT22;19094;50.972;3.538;2022-07-21T12:27:26;23.30;64.20
32706;DHT22;19094;50.972;3.538;2022-07-21T12:29:52;23.00;65.50
32706;DHT22;19094;50.972;3.538;2022-07-21T12:32:47;23.20;64.90
32706;DHT22;19094;50.972;3.538;2022-07-21T12:35:26;23.10;64.90
32706;DHT22;19094;50.972;3.538;2022-07-21T12:37:53;23.00;65.60
32706;DHT22;19094;50.972;3.538;2022-07-21T12:40:20;22.80;65.00
32706;DHT22;19094;50.972;3.538;2022-07-21T12:42:46;23.10;65.30
32706;DHT22;19094;50.972;3.538;2022-07-21T12:45:18;23.30;64.00
32706;DHT22;19094;50.972;3.538;2022-07-21T12:48:08;23.60;63.10
32706;DHT22;19094;50.972;3.538;2022-07-21T12:50:34;23.70;62.10
32706;DHT22;19094;50.972;3.538;2022-07-21T12:53:00;23.90;61.70
32706;DHT22;19094;50.972;3.538;2022-07-21T12:55:26;23.90;61.40
32706;DHT22;19094;50.972;3.538;2022-07-21T12:57:52;23.90;61.20
32706;DHT22;19094;50.972;3.538;2022-07-21T13:00:17;23.80;61.60
32706;DHT22;19094;50.972;3.538;2022-07-21T13:02:52;23.90;61.30
32706;DHT22;19094;50.972;3.538;2022-07-21T13:05:18;24.10;60.90
32706;DHT22;19094;50.972;3.538;2022-07-21T13:07:44;24.10;60.50
32706;DHT22;19094;50.972;3.538;2022-07-21T13:10:11;24.10;60.40
32706;DHT22;19094;50.972;3.538;2022-07-21T13:12:36;24.10;60.40
32706;DHT22;19094;50.972;3.538;2022-07-21T13:15:03;24.20;60.10
32706;DHT22;19094;50.972;3.538;2022-07-21T13:17:29;24.20;59.80
32706;DHT22;19094;50.972;3.538;2022-07-21T13:19:54;24.10;60.50
32706;DHT22;19094;50.972;3.538;2022-07-21T13:22:21;24.10;60.10
32706;DHT22;19094;50.972;3.538;2022-07-21T13:24:47;24.10;60.30
32706;DHT22;19094;50.972;3.538;2022-07-21T13:27:12;24.20;60.20
32706;DHT22;19094;50.972;3.538;2022-07-21T13:29:38;24.20;59.90
32706;DHT22;19094;50.972;3.538;2022-07-21T13:32:06;24.20;60.00
32706;DHT22;19094;50.972;3.538;2022-07-21T13:34:32;24.20;60.00
32706;DHT22;19094;50.972;3.538;2022-07-21T13:36:58;24.20;60.20
32706;DHT22;19094;50.972;3.538;2022-07-21T13:39:23;24.10;60.30
32706;DHT22;19094;50.972;3.538;2022-07-21T13:41:52;24.20;60.10
32706;DHT22;19094;50.972;3.538;2022-07-21T13:44:18;24.20;60.00
32706;DHT22;19094;50.972;3.538;2022-07-21T13:46:44;24.20;60.10
32706;DHT22;19094;50.972;3.538;2022-07-21T13:49:09;24.10;60.10
32706;DHT22;19094;50.972;3.538;2022-07-21T13:51:35;24.20;60.10
32706;DHT22;19094;50.972;3.538;2022-07-21T13:54:01;24.10;60.10
32706;DHT22;19094;50.972;3.538;2022-07-21T13:56:27;24.00;60.60
32706;DHT22;19094;50.972;3.538;2022-07-21T13:58:52;23.90;61.30
32706;DHT22;19094;50.972;3.538;2022-07-21T14:01:18;23.70;62.50
32706;DHT22;19094;50.972;3.538;2022-07-21T14:03:45;23.40;63.00
32706;DHT22;19094;50.972;3.538;2022-07-21T14:06:11;23.00;64.10
32706;DHT22;19094;50.972;3.538;2022-07-21T14:08:37;22.90;65.00
32706;DHT22;19094;50.972;3.538;2022-07-21T14:11:04;22.80;64.80
32706;DHT22;19094;50.972;3.538;2022-07-21T14:13:30;22.80;64.90
32706;DHT22;19094;50.972;3.538;2022-07-21T14:15:56;23.00;64.10
32706;DHT22;19094;50.972;3.538;2022-07-21T14:18:22;23.30;63.60
32706;DHT22;19094;50.972;3.538;2022-07-21T14:20:47;23.40;62.90
32706;DHT22;19094;50.972;3.538;2022-07-21T14:23:20;23.60;62.40
32706;DHT22;19094;50.972;3.538;2022-07-21T14:25:47;23.70;61.90
32706;DHT22;19094;50.972;3.538;2022-07-21T14:28:13;23.80;61.80
32706;DHT22;19094;50.972;3.538;2022-07-21T14:30:39;23.90;61.40
32706;DHT22;19094;50.972;3.538;2022-07-21T14:33:05;23.90;61.80
32706;DHT22;19094;50.972;3.538;2022-07-21T14:35:30;24.00;60.90
32706;DHT22;19094;50.972;3.538;2022-07-21T14:37:56;24.10;60.90
32706;DHT22;19094;50.972;3.538;2022-07-21T14:40:22;24.10;60.50
32706;DHT22;19094;50.972;3.538;2022-07-21T14:42:49;24.10;60.40
32706;DHT22;19094;50.972;3.538;2022-07-21T14:45:17;24.20;60.00
32706;DHT22;19094;50.972;3.538;2022-07-21T14:47:44;24.20;60.10
32706;DHT22;19094;50.972;3.538;2022-07-21T14:50:11;24.30;60.00
32706;DHT22;19094;50.972;3.538;2022-07-21T14:52:39;24.30;59.90
32706;DHT22;19094;50.972;3.538;2022-07-21T14:55:06;24.40;59.80
32706;DHT22;19094;50.972;3.538;2022-07-21T14:57:32;24.40;59.60
32706;DHT22;19094;50.972;3.538;2022-07-21T14:59:58;24.40;59.60
32706;DHT22;19094;50.972;3.538;2022-07-21T15:02:23;24.50;59.50
32706;DHT22;19094;50.972;3.538;2022-07-21T15:04:50;24.50;59.20
32706;DHT22;19094;50.972;3.538;2022-07-21T15:07:15;24.50;59.20
32706;DHT22;19094;50.972;3.538;2022-07-21T15:09:42;24.50;59.10
32706;DHT22;19094;50.972;3.538;2022-07-21T15:12:09;24.60;59.00
32706;DHT22;19094;50.972;3.538;2022-07-21T15:14:36;24.60;58.80
32706;DHT22;19094;50.972;3.538;2022-07-21T15:17:02;24.70;58.80
32706;DHT22;19094;50.972;3.538;2022-07-21T15:19:27;24.70;58.70
32706;DHT22;19094;50.972;3.538;2022-07-21T15:21:53;24.70;58.90
32706;DHT22;19094;50.972;3.538;2022-07-21T15:24:19;24.80;58.60
32706;DHT22;19094;50.972;3.538;2022-07-21T15:26:44;24.80;58.40
32706;DHT22;19094;50.972;3.538;2022-07-21T15:29:10;24.80;58.30
32706;DHT22;19094;50.972;3.538;2022-07-21T15:31:36;24.90;58.20
32706;DHT22;19094;50.972;3.538;2022-07-21T15:34:02;25.00;58.00
32706;DHT22;19094;50.972;3.538;2022-07-21T15:36:28;25.00;58.00
32706;DHT22;19094;50.972;3.538;2022-07-21T15:38:55;25.00;57.80
32706;DHT22;19094;50.972;3.538;2022-07-21T15:41:25;25.00;57.70
32706;DHT22;19094;50.972;3.538;2022-07-21T15:43:52;25.10;57.40
32706;DHT22;19094;50.972;3.538;2022-07-21T15:46:17;25.00;57.30
32706;DHT22;19094;50.972;3.538;2022-07-21T15:48:43;25.10;57.30
32706;DHT22;19094;50.972;3.538;2022-07-21T15:51:08;25.10;57.20
32706;DHT22;19094;50.972;3.538;2022-07-21T15:53:34;25.20;57.00
32706;DHT22;19094;50.972;3.538;2022-07-21T15:56:03;25.30;56.70
32706;DHT22;19094;50.972;3.538;2022-07-21T15:58:28;25.20;56.30
32706;DHT22;19094;50.972;3.538;2022-07-21T16:00:56;25.30;56.10
32706;DHT22;19094;50.972;3.538;2022-07-21T16:03:22;25.40;55.90